Time;durP1;ratioP1;P1;durP2;ratioP2;P2;SDS_P1;SDS_P2;PMS_P1;PMS_P2;Temp;Humidity;BMP_temperature;BMP_pressure;BME280_temperature;BME280_humidity;BME280_pressure;Samples;Min_cycle;Max_cycle;Signal;HPM_P1;HPM_P2
2023/06/28 00:00:31;;;;;;;71.07;16.20;;;20.60;1.00;;;;;;5076214;28;20169;-78
2023/06/28 00:02:57;;;;;;;71.60;12.40;;;20.60;1.00;;;;;;5076470;28;20199;-79
2023/06/28 00:05:23;;;;;;;79.93;13.90;;;20.60;1.00;;;;;;5075952;28;20419;-78
2023/06/28 00:07:48;;;;;;;68.80;11.97;;;20.60;1.00;;;;;;5075592;28;20387;-77
2023/06/28 00:10:14;;;;;;;69.60;10.30;;;20.50;1.00;;;;;;5075778;28;20169;-79
2023/06/28 00:12:40;;;;;;;69.70;11.67;;;20.50;4.60;;;;;;5057719;28;20255;-78
2023/06/28 00:15:06;;;;;;;68.57;8.20;;;20.40;4.50;;;;;;5075860;28;20450;-78
2023/06/28 00:17:32;;;;;;;75.53;9.33;;;20.40;6.50;;;;;;5075410;28;20184;-79
2023/06/28 00:20:00;;;;;;;67.90;7.10;;;20.40;6.40;;;;;;5041069;28;20446;-79
2023/06/28 00:22:30;;;;;;;72.67;9.70;;;20.40;7.70;;;;;;5057643;28;20180;-78
2023/06/28 00:24:56;;;;;;;67.70;7.80;;;20.40;8.40;;;;;;5075823;28;20408;-78
2023/06/28 00:27:22;;;;;;;69.27;6.90;;;20.50;6.40;;;;;;5075637;28;20794;-77
2023/06/28 00:29:47;;;;;;;70.00;6.77;;;20.40;7.50;;;;;;5075606;28;20410;-79
2023/06/28 00:32:17;;;;;;;69.20;6.50;;;20.40;10.70;;;;;;5075580;28;20589;-78
2023/06/28 00:34:42;;;;;;;68.00;6.10;;;20.30;10.10;;;;;;5075485;28;20169;-78
2023/06/28 00:37:08;;;;;;;68.90;7.30;;;20.30;10.20;;;;;;5075434;28;20472;-77
2023/06/28 00:39:34;;;;;;;68.40;7.77;;;20.40;9.50;;;;;;5075468;28;20164;-78
2023/06/28 00:42:00;;;;;;;68.70;6.80;;;20.30;9.20;;;;;;5057338;28;20164;-77
2023/06/28 00:44:26;;;;;;;72.70;6.80;;;20.30;7.70;;;;;;5057115;28;20927;-78
2023/06/28 00:46:54;;;;;;;69.63;5.90;;;20.20;7.90;;;;;;5074977;28;20406;-78
2023/06/28 00:49:20;;;;;;;67.10;6.67;;;20.20;9.20;;;;;;5075393;28;20232;-77
2023/06/28 00:51:46;;;;;;;68.03;7.83;;;20.20;8.40;;;;;;5057561;28;20401;-78
2023/06/28 00:54:12;;;;;;;68.03;6.20;;;20.20;6.10;;;;;;5075345;28;20397;-78
2023/06/28 00:56:39;;;;;;;66.70;6.07;;;20.20;6.20;;;;;;5075504;28;20400;-78
2023/06/28 00:59:05;;;;;;;67.40;6.40;;;20.20;3.20;;;;;;5057209;28;20433;-78
2023/06/28 01:01:31;;;;;;;67.77;6.80;;;20.20;4.20;;;;;;5075513;28;20811;-79
2023/06/28 01:04:00;;;;;;;69.27;6.70;;;20.10;2.70;;;;;;5075367;28;20431;-78
2023/06/28 01:06:31;;;;;;;68.73;6.17;;;20.10;2.70;;;;;;5074991;28;20489;-78
2023/06/28 01:08:57;;;;;;;71.20;6.50;;;20.10;4.20;;;;;;5057100;28;20462;-78
2023/06/28 01:11:24;;;;;;;69.17;5.20;;;20.10;5.70;;;;;;5075498;28;20398;-78
2023/06/28 01:13:50;;;;;;;69.10;6.30;;;20.10;3.40;;;;;;5075045;28;20757;-78
2023/06/28 01:16:16;;;;;;;67.07;6.50;;;20.10;5.10;;;;;;5079986;28;20401;-78
2023/06/28 01:18:41;;;;;;;68.27;5.90;;;20.00;4.60;;;;;;5081209;28;20485;-78
2023/06/28 01:21:10;;;;;;;67.60;6.17;;;20.10;3.80;;;;;;5081903;28;20166;-78
2023/06/28 01:23:36;;;;;;;68.70;6.30;;;19.90;5.40;;;;;;5063759;28;20632;-77
2023/06/28 01:26:02;;;;;;;67.20;6.37;;;19.90;6.00;;;;;;5081672;28;20983;-77
2023/06/28 01:28:31;;;;;;;69.47;7.00;;;19.90;4.60;;;;;;5081477;28;20487;-77
2023/06/28 01:30:59;;;;;;;68.93;7.00;;;19.90;4.00;;;;;;5081528;28;20390;-78
2023/06/28 01:33:26;;;;;;;69.83;6.10;;;19.90;3.70;;;;;;5081425;28;20397;-77
2023/06/28 01:35:52;;;;;;;67.50;6.47;;;19.80;5.80;;;;;;5081372;28;20394;-78
2023/06/28 01:38:19;;;;;;;72.60;6.17;;;19.80;6.30;;;;;;5081578;28;20492;-79
2023/06/28 01:40:48;;;;;;;69.67;7.87;;;19.80;5.80;;;;;;5081440;28;20175;-77
2023/06/28 01:43:14;;;;;;;66.17;5.10;;;19.80;4.70;;;;;;5081277;28;20399;-77
2023/06/28 01:45:40;;;;;;;69.20;5.57;;;19.70;5.50;;;;;;5081397;28;20786;-77
2023/06/28 01:48:05;;;;;;;70.80;5.97;;;19.70;6.00;;;;;;5081224;28;20274;-77
2023/06/28 01:50:31;;;;;;;69.00;5.70;;;19.70;6.30;;;;;;5081656;28;20168;-78
2023/06/28 01:52:59;;;;;;;68.30;5.90;;;19.60;7.50;;;;;;5081698;28;20456;-78
2023/06/28 01:55:25;;;;;;;70.20;4.27;;;19.70;5.60;;;;;;5081660;28;20174;-77
2023/06/28 01:57:50;;;;;;;65.87;5.30;;;19.60;7.10;;;;;;5081379;28;20414;-78
2023/06/28 02:00:17;;;;;;;69.07;5.50;;;19.60;8.50;;;;;;5081158;28;20172;-78
2023/06/28 02:02:42;;;;;;;68.47;5.37;;;19.50;8.50;;;;;;5081754;28;20171;-78
2023/06/28 02:05:08;;;;;;;66.50;4.93;;;19.40;8.30;;;;;;5136609;22;20847;-77
2023/06/28 02:07:34;;;;;;;68.70;5.43;;;19.40;9.20;;;;;;5080971;28;20237;-78
2023/06/28 02:09:59;;;;;;;67.10;6.40;;;19.50;6.40;;;;;;5080953;28;20837;-77
2023/06/28 02:12:25;;;;;;;67.17;6.30;;;19.40;6.10;;;;;;5081598;28;20191;-77
2023/06/28 02:14:52;;;;;;;65.43;5.90;;;19.50;2.90;;;;;;5080953;28;20162;-78
2023/06/28 02:17:20;;;;;;;67.27;5.50;;;19.50;1.70;;;;;;5081103;28;20186;-77
2023/06/28 02:19:50;;;;;;;67.60;6.33;;;19.50;1.00;;;;;;5063083;28;20907;-78
2023/06/28 02:22:17;;;;;;;72.00;8.00;;;19.40;1.00;;;;;;5081124;28;20868;-77
2023/06/28 02:24:43;;;;;;;67.10;6.07;;;19.40;1.00;;;;;;5081166;28;20406;-78
2023/06/28 02:27:11;;;;;;;67.23;6.20;;;19.30;1.00;;;;;;5077737;28;20485;-77
2023/06/28 02:29:37;;;;;;;68.47;5.30;;;19.30;1.00;;;;;;5077421;28;20471;-77
2023/06/28 02:32:03;;;;;;;67.07;5.90;;;19.30;1.00;;;;;;5077867;28;20907;-77
2023/06/28 02:34:29;;;;;;;65.27;4.37;;;19.30;1.00;;;;;;5077590;28;20423;-78
2023/06/28 02:36:55;;;;;;;68.50;4.47;;;19.30;4.80;;;;;;5077900;28;20482;-78
2023/06/28 02:39:21;;;;;;;67.27;4.57;;;19.30;5.10;;;;;;5077863;28;20164;-78
2023/06/28 02:41:47;;;;;;;72.97;5.60;;;19.40;3.40;;;;;;5077377;28;20405;-78
2023/06/28 02:44:14;;;;;;;66.97;5.67;;;19.30;1.30;;;;;;5078228;28;20403;-78
2023/06/28 02:46:39;;;;;;;66.67;5.10;;;19.30;2.70;;;;;;5059737;28;20635;-78
2023/06/28 02:49:06;;;;;;;67.20;6.13;;;19.30;3.10;;;;;;5077473;28;20445;-77
2023/06/28 02:51:32;;;;;;;71.00;6.00;;;19.20;2.80;;;;;;5077254;28;20168;-77
2023/06/28 02:54:01;;;;;;;67.20;4.70;;;19.20;1.70;;;;;;5059639;28;20414;-78
2023/06/28 02:56:27;;;;;;;65.97;5.07;;;19.30;1.20;;;;;;5077503;28;20167;-77
2023/06/28 02:58:53;;;;;;;68.77;5.70;;;19.20;2.00;;;;;;5076829;28;20420;-77
2023/06/28 03:01:22;;;;;;;66.37;5.47;;;19.20;1.40;;;;;;5077023;28;20408;-77
2023/06/28 03:03:48;;;;;;;66.83;4.50;;;19.20;1.30;;;;;;5076650;28;20180;-78
2023/06/28 03:06:17;;;;;;;68.40;4.37;;;19.20;2.90;;;;;;5076835;28;20453;-77
2023/06/28 03:08:43;;;;;;;67.03;4.40;;;19.30;3.60;;;;;;5076780;28;20455;-78
2023/06/28 03:11:09;;;;;;;67.20;4.10;;;19.30;4.20;;;;;;5076665;28;20413;-79
2023/06/28 03:13:34;;;;;;;70.30;4.17;;;19.30;4.60;;;;;;5076607;28;20174;-78
2023/06/28 03:16:00;;;;;;;67.43;4.27;;;19.30;6.40;;;;;;5076245;28;20910;-77
2023/06/28 03:18:26;;;;;;;66.90;4.30;;;19.20;7.30;;;;;;5058680;28;20188;-78
2023/06/28 03:20:52;;;;;;;68.47;4.37;;;19.20;8.40;;;;;;5058438;28;21016;-77
2023/06/28 03:23:17;;;;;;;65.57;4.10;;;19.30;9.10;;;;;;5076283;28;20406;-78
2023/06/28 03:25:43;;;;;;;66.10;4.00;;;19.20;10.90;;;;;;5076539;28;20296;-78
2023/06/28 03:28:13;;;;;;;67.90;4.70;;;19.20;12.20;;;;;;5076054;28;20201;-78
2023/06/28 03:30:38;;;;;;;72.00;4.30;;;19.10;15.40;;;;;;5058288;28;20415;-77
2023/06/28 03:33:04;;;;;;;68.23;4.20;;;19.20;15.30;;;;;;5076531;28;20405;-78
2023/06/28 03:35:29;;;;;;;67.90;4.07;;;19.20;13.20;;;;;;5058627;28;20163;-78
2023/06/28 03:37:55;;;;;;;67.77;4.47;;;19.20;13.80;;;;;;5075789;28;20190;-77
2023/06/28 03:40:22;;;;;;;67.00;4.50;;;19.10;15.70;;;;;;5076584;28;20164;-78
2023/06/28 03:42:48;;;;;;;67.23;4.53;;;19.10;16.60;;;;;;5075999;28;20409;-77
2023/06/28 03:45:17;;;;;;;71.30;4.40;;;19.20;15.50;;;;;;5057977;28;20458;-78
2023/06/28 03:47:43;;;;;;;67.53;3.80;;;19.20;16.00;;;;;;5058257;28;20430;-78
2023/06/28 03:50:09;;;;;;;69.37;4.13;;;19.20;15.30;;;;;;5058278;28;20414;-77
2023/06/28 03:52:35;;;;;;;66.90;4.23;;;19.20;15.20;;;;;;5057717;28;20165;-78
2023/06/28 03:55:02;;;;;;;68.70;4.33;;;19.30;13.80;;;;;;5075916;28;20443;-78
2023/06/28 03:57:29;;;;;;;66.10;4.30;;;19.30;13.50;;;;;;5058216;28;20426;-78
2023/06/28 03:59:54;;;;;;;68.90;4.07;;;19.30;13.40;;;;;;5075676;28;20914;-77
2023/06/28 04:02:20;;;;;;;68.10;4.30;;;19.30;14.40;;;;;;5075653;28;20406;-78
2023/06/28 04:04:46;;;;;;;69.20;3.90;;;19.30;14.10;;;;;;5075393;28;20434;-77
2023/06/28 04:07:12;;;;;;;65.93;3.53;;;19.30;14.90;;;;;;5057302;28;20253;-77
2023/06/28 04:09:38;;;;;;;67.80;4.23;;;19.20;14.20;;;;;;5075040;28;20211;-78
2023/06/28 04:12:04;;;;;;;67.10;4.13;;;19.30;13.00;;;;;;5075399;28;20156;-78
2023/06/28 04:14:30;;;;;;;66.70;4.37;;;19.30;13.60;;;;;;5075219;28;20401;-77
2023/06/28 04:16:56;;;;;;;72.67;4.90;;;19.30;15.80;;;;;;5075481;28;20499;-77
2023/06/28 04:19:22;;;;;;;71.40;4.83;;;19.30;16.80;;;;;;5075271;28;20175;-77
2023/06/28 04:21:47;;;;;;;66.00;4.30;;;19.30;17.40;;;;;;5075582;28;20648;-78
2023/06/28 04:24:13;;;;;;;67.60;4.40;;;19.30;17.30;;;;;;5056988;28;20175;-78
2023/06/28 04:26:39;;;;;;;69.63;5.10;;;19.30;16.70;;;;;;5075847;28;20406;-77
2023/06/28 04:29:04;;;;;;;70.60;5.23;;;19.30;19.10;;;;;;5074744;28;20193;-77
2023/06/28 04:31:30;;;;;;;68.67;5.10;;;19.20;20.90;;;;;;5074948;28;20654;-78
2023/06/28 04:33:57;;;;;;;66.67;5.60;;;19.20;22.40;;;;;;5056911;28;20167;-78
2023/06/28 04:36:25;;;;;;;67.10;5.70;;;19.20;23.70;;;;;;5075236;28;20524;-77
2023/06/28 04:38:52;;;;;;;69.00;5.20;;;19.20;23.80;;;;;;5075035;28;20426;-78
2023/06/28 04:41:28;;;;;;;70.00;5.23;;;19.20;24.00;;;;;;5075620;28;20425;-77
2023/06/28 04:43:55;;;;;;;69.90;5.70;;;19.20;24.50;;;;;;5075012;28;20395;-77
2023/06/28 04:46:27;;;;;;;67.37;5.43;;;19.20;22.30;;;;;;5056891;28;20409;-77
2023/06/28 04:48:53;;;;;;;68.20;5.20;;;19.20;22.70;;;;;;5074658;28;20972;-77
2023/06/28 04:51:20;;;;;;;66.50;5.37;;;19.20;22.70;;;;;;5074084;28;20770;-78
2023/06/28 04:53:50;;;;;;;66.80;5.30;;;19.30;23.20;;;;;;5074749;28;20400;-78
2023/06/28 04:56:19;;;;;;;69.67;4.63;;;19.30;21.10;;;;;;5075182;28;20395;-78
2023/06/28 04:58:44;;;;;;;69.93;5.20;;;19.30;19.20;;;;;;5074618;28;20940;-77
2023/06/28 05:01:10;;;;;;;70.53;5.27;;;19.30;20.20;;;;;;5074996;28;20498;-77
2023/06/28 05:03:38;;;;;;;67.97;4.10;;;19.30;20.20;;;;;;5076308;28;20186;-79
2023/06/28 05:06:06;;;;;;;67.60;4.43;;;19.30;17.90;;;;;;5058297;28;20164;-78
2023/06/28 05:08:32;;;;;;;71.27;4.47;;;19.40;17.10;;;;;;5074943;28;20549;-78
2023/06/28 05:10:58;;;;;;;69.53;4.23;;;19.30;18.00;;;;;;5074907;28;20403;-78
2023/06/28 05:13:25;;;;;;;69.17;3.93;;;19.30;18.90;;;;;;5074747;28;20401;-77
2023/06/28 05:15:51;;;;;;;65.90;4.10;;;19.40;17.10;;;;;;5074928;28;20767;-77
2023/06/28 05:18:18;;;;;;;67.77;4.03;;;19.40;16.20;;;;;;5075087;28;20433;-78
2023/06/28 05:20:44;;;;;;;65.57;3.30;;;19.50;12.80;;;;;;5056747;28;20196;-77
2023/06/28 05:23:18;;;;;;;68.80;3.80;;;19.60;9.90;;;;;;5074747;28;20428;-77
2023/06/28 05:25:45;;;;;;;67.13;3.70;;;19.60;7.80;;;;;;5074895;28;20405;-78
2023/06/28 05:28:12;;;;;;;71.93;4.10;;;19.50;9.70;;;;;;5074533;28;20446;-77
2023/06/28 05:30:38;;;;;;;69.13;4.23;;;19.50;12.00;;;;;;5075344;28;21013;-78
2023/06/28 05:33:03;;;;;;;69.40;4.03;;;19.40;14.50;;;;;;5057750;28;20441;-77
2023/06/28 05:35:30;;;;;;;68.53;4.00;;;19.50;12.80;;;;;;5075619;28;20406;-77
2023/06/28 05:37:56;;;;;;;69.03;3.60;;;19.60;12.10;;;;;;5075485;28;20674;-77
2023/06/28 05:40:22;;;;;;;71.30;4.10;;;19.70;9.40;;;;;;5075847;28;20416;-77
2023/06/28 05:42:47;;;;;;;66.53;4.10;;;19.70;9.40;;;;;;5075276;28;20169;-77
2023/06/28 05:45:13;;;;;;;66.17;3.30;;;19.80;6.60;;;;;;5075908;28;20171;-78
2023/06/28 05:47:39;;;;;;;66.93;3.57;;;19.70;10.10;;;;;;5058608;28;20237;-78
2023/06/28 05:50:05;;;;;;;66.43;4.03;;;19.70;8.80;;;;;;5076244;28;20162;-78
2023/06/28 05:52:31;;;;;;;68.23;4.00;;;19.70;10.40;;;;;;5075440;28;20532;-79
2023/06/28 05:54:57;;;;;;;70.10;4.10;;;19.70;9.60;;;;;;5075478;28;20392;-79
2023/06/28 05:57:25;;;;;;;68.00;4.10;;;19.70;9.90;;;;;;5059192;28;20707;-78
2023/06/28 05:59:51;;;;;;;66.40;3.50;;;19.70;10.60;;;;;;5076227;28;20390;-78
2023/06/28 06:02:17;;;;;;;72.80;4.33;;;19.70;13.00;;;;;;5059962;28;20843;-78
2023/06/28 06:04:42;;;;;;;67.40;3.87;;;19.60;13.00;;;;;;5080994;28;20189;-78
2023/06/28 06:07:08;;;;;;;68.60;3.90;;;19.70;12.60;;;;;;5086654;28;20206;-79
2023/06/28 06:09:34;;;;;;;68.67;4.77;;;19.70;14.30;;;;;;5085964;28;20200;-79
2023/06/28 06:11:59;;;;;;;68.60;4.20;;;19.70;18.00;;;;;;5079616;28;20149;-79
2023/06/28 06:14:25;;;;;;;69.30;4.70;;;19.70;16.80;;;;;;5078368;28;20171;-79
2023/06/28 06:16:51;;;;;;;68.70;4.60;;;19.70;16.60;;;;;;5060213;28;20180;-79
2023/06/28 06:19:16;;;;;;;68.20;4.80;;;19.70;20.20;;;;;;5078976;28;20512;-79
2023/06/28 06:21:42;;;;;;;67.90;4.47;;;19.80;18.20;;;;;;5078387;28;20191;-79
2023/06/28 06:24:08;;;;;;;69.57;4.80;;;19.90;19.10;;;;;;5078221;28;20177;-79
2023/06/28 06:26:35;;;;;;;72.13;4.60;;;19.70;21.20;;;;;;5061021;28;20174;-80
2023/06/28 06:29:01;;;;;;;68.00;5.40;;;19.70;20.60;;;;;;5081180;28;20204;-80
2023/06/28 06:31:27;;;;;;;70.63;3.97;;;19.70;18.00;;;;;;5082717;28;20408;-80
2023/06/28 06:33:52;;;;;;;65.60;4.20;;;19.70;15.50;;;;;;5082307;28;20406;-79
2023/06/28 06:36:18;;;;;;;66.53;4.10;;;19.70;15.30;;;;;;5083090;28;20164;-79
2023/06/28 06:38:44;;;;;;;65.80;3.63;;;19.60;15.70;;;;;;5081945;28;20682;-79
2023/06/28 06:41:09;;;;;;;72.10;4.00;;;19.70;13.10;;;;;;5081986;28;20176;-79
2023/06/28 06:43:35;;;;;;;70.03;4.50;;;19.70;8.30;;;;;;5082124;28;20193;-79
2023/06/28 06:46:01;;;;;;;68.40;4.50;;;19.90;5.70;;;;;;5082485;28;20168;-79
2023/06/28 06:48:26;;;;;;;67.30;4.10;;;19.80;4.80;;;;;;5081344;28;20196;-79
2023/06/28 06:50:52;;;;;;;69.70;4.53;;;19.90;7.20;;;;;;5082059;28;20553;-79
2023/06/28 06:53:18;;;;;;;67.97;4.40;;;19.90;8.60;;;;;;5081797;28;20171;-79
2023/06/28 06:55:44;;;;;;;67.53;4.27;;;19.90;5.20;;;;;;5082492;28;20190;-79
2023/06/28 06:58:09;;;;;;;70.40;4.40;;;19.90;6.60;;;;;;5080092;28;20934;-80
2023/06/28 07:00:35;;;;;;;72.47;4.67;;;19.90;7.00;;;;;;5078357;28;20671;-80
2023/06/28 07:03:00;;;;;;;70.10;4.10;;;20.00;6.50;;;;;;5077415;28;20513;-80
2023/06/28 07:05:26;;;;;;;67.30;4.50;;;20.00;4.00;;;;;;5059821;28;20184;-80
2023/06/28 07:07:54;;;;;;;65.80;3.60;;;19.90;6.60;;;;;;5077622;28;20280;-80
2023/06/28 07:10:20;;;;;;;68.27;3.97;;;19.80;12.80;;;;;;5060129;28;20169;-80
2023/06/28 07:12:45;;;;;;;69.93;4.00;;;19.80;10.60;;;;;;5076759;28;20742;-79
2023/06/28 07:15:11;;;;;;;66.20;4.00;;;19.90;10.50;;;;;;5078007;28;20164;-80
2023/06/28 07:17:37;;;;;;;70.03;4.43;;;20.00;3.30;;;;;;5061757;28;20691;-79
2023/06/28 07:20:02;;;;;;;68.50;4.70;;;20.00;3.80;;;;;;5079889;28;20153;-79
2023/06/28 07:22:28;;;;;;;70.73;4.47;;;20.00;1.60;;;;;;5079452;28;20164;-79
2023/06/28 07:24:54;;;;;;;72.13;4.97;;;20.10;1.00;;;;;;5080966;28;20161;-79
2023/06/28 07:27:19;;;;;;;67.87;4.83;;;20.10;1.00;;;;;;5081398;28;20259;-79
2023/06/28 07:29:45;;;;;;;68.13;4.73;;;20.10;1.00;;;;;;5082041;28;20194;-79
2023/06/28 07:32:11;;;;;;;72.33;5.00;;;20.00;1.00;;;;;;5079783;28;20160;-79
2023/06/28 07:34:37;;;;;;;70.10;4.30;;;20.00;1.00;;;;;;5061451;28;20199;-79
2023/06/28 07:37:05;;;;;;;84.70;6.37;;;20.00;1.00;;;;;;5061980;28;20178;-79
2023/06/28 07:39:32;;;;;;;68.37;5.20;;;20.10;1.00;;;;;;5079719;28;20402;-79
2023/06/28 07:41:58;;;;;;;70.77;6.27;;;20.10;1.00;;;;;;5079080;28;20416;-79
2023/06/28 07:44:24;;;;;;;69.83;6.93;;;20.20;1.00;;;;;;5061325;28;20411;-79
2023/06/28 07:46:50;;;;;;;69.50;6.77;;;20.20;1.00;;;;;;5079202;28;20243;-79
2023/06/28 07:49:15;;;;;;;70.37;6.73;;;20.20;1.00;;;;;;5078401;28;20188;-78
2023/06/28 07:51:41;;;;;;;70.47;8.30;;;20.30;1.00;;;;;;5077294;28;20214;-77
2023/06/28 07:54:08;;;;;;;68.40;5.97;;;20.30;1.00;;;;;;5058960;28;20162;-79
2023/06/28 07:56:34;;;;;;;68.10;7.57;;;20.40;1.00;;;;;;5076909;28;20400;-77
2023/06/28 07:59:01;;;;;;;72.00;8.37;;;20.40;1.00;;;;;;5077272;28;20421;-78
2023/06/28 08:01:32;;;;;;;71.00;9.33;;;20.40;1.00;;;;;;5059564;28;20185;-77
2023/06/28 08:03:58;;;;;;;67.77;7.57;;;20.50;1.00;;;;;;5077314;28;20490;-78
2023/06/28 08:06:23;;;;;;;70.27;7.53;;;20.40;1.00;;;;;;5077908;28;20886;-77
2023/06/28 08:08:50;;;;;;;68.87;8.47;;;20.50;1.00;;;;;;5076930;28;20191;-77
2023/06/28 08:11:16;;;;;;;68.40;9.87;;;20.50;1.00;;;;;;5058825;28;20448;-78
2023/06/28 08:13:42;;;;;;;75.23;10.40;;;20.60;1.00;;;;;;5058587;28;20821;-77
2023/06/28 08:16:11;;;;;;;69.37;10.43;;;20.60;1.00;;;;;;5078046;28;20191;-79
2023/06/28 08:18:36;;;;;;;72.63;9.77;;;20.70;1.00;;;;;;5075222;28;20441;-78
2023/06/28 08:21:02;;;;;;;69.97;8.70;;;20.70;1.00;;;;;;5075081;28;20408;-78
2023/06/28 08:23:28;;;;;;;72.13;9.10;;;20.90;1.00;;;;;;5074903;28;20908;-78
2023/06/28 08:25:53;;;;;;;68.63;8.10;;;21.00;1.00;;;;;;5073758;28;20643;-78
2023/06/28 08:28:19;;;;;;;73.53;11.37;;;21.10;1.00;;;;;;5074837;28;20191;-79
2023/06/28 08:30:45;;;;;;;71.97;12.70;;;21.20;1.00;;;;;;5075261;28;20675;-79
2023/06/28 08:33:11;;;;;;;75.70;11.43;;;21.30;1.00;;;;;;5057432;28;20225;-79
2023/06/28 08:35:37;;;;;;;72.07;14.93;;;21.20;1.00;;;;;;5058864;28;20168;-78
2023/06/28 08:38:03;;;;;;;72.37;16.57;;;21.20;1.00;;;;;;5147661;22;20628;-78
2023/06/28 08:40:30;;;;;;;71.53;13.57;;;21.10;1.00;;;;;;5058369;28;20211;-78
2023/06/28 08:43:03;;;;;;;71.70;17.77;;;21.30;1.00;;;;;;5058343;28;20394;-78
2023/06/28 08:45:35;;;;;;;74.43;18.07;;;21.30;1.00;;;;;;5076104;28;20380;-79
2023/06/28 08:48:01;;;;;;;76.30;15.90;;;21.40;1.00;;;;;;5076322;28;20582;-78
2023/06/28 08:50:28;;;;;;;73.20;15.83;;;21.40;1.00;;;;;;5076062;28;20413;-78
2023/06/28 08:52:53;;;;;;;72.37;15.97;;;21.30;1.00;;;;;;5076190;28;20452;-78
2023/06/28 08:55:20;;;;;;;70.57;15.87;;;21.30;1.00;;;;;;5076308;28;20394;-78
2023/06/28 08:57:47;;;;;;;74.60;13.90;;;21.20;1.00;;;;;;5058383;28;20184;-78
2023/06/28 09:00:13;;;;;;;70.37;14.07;;;21.10;1.00;;;;;;5075607;28;20844;-77
2023/06/28 09:02:42;;;;;;;70.77;14.87;;;21.00;1.00;;;;;;5057309;28;20944;-77
2023/06/28 09:05:09;;;;;;;77.33;14.70;;;20.80;1.00;;;;;;5057237;28;20406;-78
2023/06/28 09:07:39;;;;;;;73.60;11.70;;;21.00;1.00;;;;;;5074396;28;20417;-77
2023/06/28 09:10:09;;;;;;;70.80;13.30;;;20.90;1.00;;;;;;5057171;28;20782;-77
2023/06/28 09:12:36;;;;;;;74.10;13.97;;;21.00;1.00;;;;;;5059763;28;20901;-79
2023/06/28 09:15:05;;;;;;;71.60;15.67;;;21.00;1.00;;;;;;5077290;28;20488;-79
2023/06/28 09:17:31;;;;;;;73.00;9.67;;;21.00;1.00;;;;;;5077798;28;20433;-79
2023/06/28 09:20:19;;;;;;;73.60;10.80;;;21.00;1.00;;;;;;5078629;28;20406;-79
2023/06/28 09:22:58;;;;;;;72.97;13.57;;;21.10;1.00;;;;;;5078349;28;20279;-79
2023/06/28 09:25:27;;;;;;;74.40;14.97;;;21.10;1.00;;;;;;5061945;28;20421;-80
2023/06/28 09:27:54;;;;;;;71.77;16.27;;;21.00;1.00;;;;;;5063124;28;20929;-79
2023/06/28 09:30:20;;;;;;;70.90;11.00;;;21.10;1.00;;;;;;5077649;28;20495;-79
2023/06/28 09:32:50;;;;;;;72.63;14.40;;;21.30;1.00;;;;;;5078671;28;20437;-79
2023/06/28 09:35:20;;;;;;;73.87;11.57;;;21.40;1.00;;;;;;5078036;28;20694;-77
2023/06/28 09:37:54;;;;;;;75.20;11.43;;;21.40;1.00;;;;;;5081892;28;20469;-79
2023/06/28 09:40:20;;;;;;;77.50;13.90;;;21.40;1.00;;;;;;5064731;28;20414;-79
2023/06/28 09:42:47;;;;;;;73.30;11.30;;;21.60;1.00;;;;;;5081750;28;20405;-79
2023/06/28 09:45:27;;;;;;;70.60;8.90;;;21.80;1.00;;;;;;5081796;28;20450;-79
2023/06/28 09:48:00;;;;;;;69.67;7.90;;;22.00;1.00;;;;;;5081824;28;20418;-79
2023/06/28 09:50:38;;;;;;;70.17;7.50;;;22.10;1.00;;;;;;5081824;28;20394;-79
2023/06/28 09:53:12;;;;;;;73.13;6.73;;;22.10;1.00;;;;;;5081199;28;20429;-79
2023/06/28 09:55:40;;;;;;;73.50;6.07;;;22.00;1.00;;;;;;5062548;28;20416;-79
2023/06/28 09:58:17;;;;;;;75.80;6.53;;;22.00;1.00;;;;;;5081207;28;20429;-79
2023/06/28 10:00:45;;;;;;;72.50;7.33;;;21.90;1.00;;;;;;5063137;28;20413;-79
2023/06/28 10:03:12;;;;;;;69.93;5.53;;;21.90;1.00;;;;;;5080810;28;20409;-79
2023/06/28 10:05:39;;;;;;;70.67;6.97;;;22.00;1.00;;;;;;5063475;28;20425;-79
2023/06/28 10:08:14;;;;;;;68.77;5.43;;;21.90;1.00;;;;;;5062341;28;20536;-79
2023/06/28 10:10:40;;;;;;;71.63;5.30;;;21.90;1.00;;;;;;5062160;28;20418;-79
2023/06/28 10:13:17;;;;;;;69.40;5.00;;;21.90;1.00;;;;;;5081178;28;20402;-79
2023/06/28 10:16:09;;;;;;;68.20;4.90;;;22.00;1.00;;;;;;5080674;28;20379;-79
2023/06/28 10:18:35;;;;;;;67.70;5.53;;;21.90;1.00;;;;;;5081086;28;20486;-79
2023/06/28 10:21:06;;;;;;;70.77;4.80;;;21.90;1.00;;;;;;5083146;28;20390;-79
2023/06/28 10:23:37;;;;;;;69.10;7.30;;;21.90;1.00;;;;;;5065339;28;20759;-79
2023/06/28 10:26:03;;;;;;;71.73;5.50;;;22.20;1.00;;;;;;5064278;28;20415;-79
2023/06/28 10:28:32;;;;;;;72.40;5.27;;;22.30;1.00;;;;;;5082157;28;20457;-79
2023/06/28 10:30:59;;;;;;;73.47;5.10;;;22.20;1.00;;;;;;5083828;28;20409;-80
2023/06/28 10:33:25;;;;;;;74.70;5.10;;;22.20;1.00;;;;;;5085730;28;20422;-79
2023/06/28 10:35:52;;;;;;;80.00;5.33;;;22.30;1.00;;;;;;5079668;28;20410;-78
2023/06/28 10:38:18;;;;;;;70.97;5.00;;;22.30;1.00;;;;;;5080002;28;20210;-77
2023/06/28 10:40:47;;;;;;;69.90;6.33;;;22.20;1.00;;;;;;5080638;28;20902;-79
2023/06/28 10:43:23;;;;;;;69.20;4.80;;;22.20;1.00;;;;;;5080132;28;20152;-77
2023/06/28 10:45:50;;;;;;;69.33;4.83;;;22.30;1.00;;;;;;5061828;28;20433;-78
2023/06/28 10:48:23;;;;;;;71.30;5.77;;;22.30;1.00;;;;;;5078810;28;20446;-77
2023/06/28 10:50:50;;;;;;;73.90;5.70;;;22.20;1.00;;;;;;5079915;28;20410;-77
2023/06/28 10:53:25;;;;;;;75.27;5.53;;;22.10;1.00;;;;;;5059607;28;20406;-78
2023/06/28 10:56:18;;;;;;;70.47;4.90;;;22.30;1.00;;;;;;5078050;28;20402;-78
2023/06/28 10:58:45;;;;;;;76.00;6.23;;;22.20;1.00;;;;;;5072594;28;20442;-78
2023/06/28 11:01:13;;;;;;;71.50;5.27;;;22.50;1.00;;;;;;5077123;28;20412;-78
2023/06/28 11:03:43;;;;;;;70.60;5.00;;;22.70;1.00;;;;;;5076855;28;20959;-78
2023/06/28 11:06:13;;;;;;;70.17;5.57;;;23.00;1.00;;;;;;5059219;28;20418;-79
2023/06/28 11:08:44;;;;;;;68.47;6.10;;;23.10;1.00;;;;;;5060099;28;20454;-77
2023/06/28 11:11:31;;;;;;;70.60;5.60;;;23.30;1.00;;;;;;5058788;28;20418;-77
2023/06/28 11:13:57;;;;;;;71.50;6.73;;;23.30;1.00;;;;;;5059480;28;20504;-77
2023/06/28 11:16:24;;;;;;;74.17;6.90;;;23.40;1.00;;;;;;5077138;28;20430;-78
2023/06/28 11:18:52;;;;;;;71.17;6.50;;;23.30;1.00;;;;;;5058539;28;20464;-77
2023/06/28 11:21:25;;;;;;;69.17;6.20;;;23.20;1.00;;;;;;5058734;28;20441;-78
2023/06/28 11:23:55;;;;;;;69.50;6.70;;;23.20;1.00;;;;;;5076658;28;20390;-77
2023/06/28 11:26:36;;;;;;;71.90;7.83;;;22.60;1.00;;;;;;5076524;28;20807;-78
2023/06/28 11:29:18;;;;;;;74.77;6.53;;;22.70;1.00;;;;;;5076250;28;20445;-78
2023/06/28 11:31:49;;;;;;;74.00;6.60;;;23.10;1.00;;;;;;5076559;28;20887;-77
2023/06/28 11:34:14;;;;;;;68.00;5.73;;;23.20;1.00;;;;;;5058533;28;20406;-78
2023/06/28 11:36:43;;;;;;;72.03;7.87;;;23.40;1.00;;;;;;5075870;28;20411;-77
2023/06/28 11:39:12;;;;;;;71.93;7.17;;;23.60;1.00;;;;;;5076134;28;20298;-77
2023/06/28 11:41:39;;;;;;;70.67;6.80;;;23.70;1.00;;;;;;5076234;28;20929;-77
2023/06/28 11:44:07;;;;;;;71.90;7.20;;;23.80;1.00;;;;;;5076223;28;20415;-78
2023/06/28 11:46:33;;;;;;;71.40;7.40;;;23.80;1.00;;;;;;5076463;28;20916;-77
2023/06/28 11:49:02;;;;;;;74.97;7.30;;;23.80;1.00;;;;;;5075723;28;20511;-77
2023/06/28 11:51:29;;;;;;;71.47;7.30;;;23.90;1.00;;;;;;5057912;28;20402;-78
2023/06/28 11:53:55;;;;;;;74.00;7.80;;;23.90;1.00;;;;;;5075945;28;20398;-77
2023/06/28 11:56:40;;;;;;;73.23;7.80;;;24.10;1.00;;;;;;5057850;28;20411;-77
2023/06/28 11:59:20;;;;;;;73.13;7.23;;;24.30;1.00;;;;;;5075281;28;20434;-77
2023/06/28 12:01:47;;;;;;;72.83;8.20;;;24.30;1.00;;;;;;5075864;28;20875;-79
2023/06/28 12:04:22;;;;;;;74.10;7.20;;;24.40;1.00;;;;;;5075767;28;20757;-78
2023/06/28 12:06:48;;;;;;;72.87;7.23;;;24.40;1.00;;;;;;5075187;28;20494;-78
2023/06/28 12:09:28;;;;;;;83.83;9.20;;;24.50;1.00;;;;;;5075549;28;20476;-77
2023/06/28 12:11:58;;;;;;;73.00;7.57;;;24.60;1.00;;;;;;5075709;28;20479;-77
2023/06/28 12:14:28;;;;;;;71.47;7.53;;;24.60;1.00;;;;;;5075457;28;20406;-77
2023/06/28 12:16:55;;;;;;;75.80;9.47;;;24.50;1.00;;;;;;5075832;28;20435;-77
2023/06/28 12:19:29;;;;;;;70.10;6.40;;;24.60;1.00;;;;;;5076031;28;20501;-77
2023/06/28 12:21:56;;;;;;;74.07;7.70;;;24.80;1.00;;;;;;5057917;28;20416;-77
2023/06/28 12:24:24;;;;;;;74.77;8.60;;;24.60;1.00;;;;;;5075259;28;20401;-78
2023/06/28 12:26:54;;;;;;;70.50;7.27;;;24.60;1.00;;;;;;5076693;28;20773;-77
2023/06/28 12:29:21;;;;;;;73.83;7.53;;;24.60;1.00;;;;;;5079080;28;20506;-78
2023/06/28 12:32:02;;;;;;;76.80;7.07;;;24.60;1.00;;;;;;5078176;28;20410;-78
2023/06/28 12:34:31;;;;;;;77.07;6.10;;;24.90;1.00;;;;;;5078287;28;20379;-78
2023/06/28 12:37:01;;;;;;;71.47;5.90;;;25.20;1.00;;;;;;5076237;28;20405;-78
2023/06/28 12:39:28;;;;;;;72.60;6.50;;;25.40;1.00;;;;;;5058636;28;20425;-78
2023/06/28 12:42:04;;;;;;;77.97;7.00;;;25.00;1.00;;;;;;5058683;28;20925;-77
2023/06/28 12:44:31;;;;;;;76.17;6.67;;;25.30;1.00;;;;;;5076801;28;20402;-78